createdAt,value
2016-12-24T00:00:44.042Z,0
2016-12-24T00:01:54.067Z,0
2016-12-24T00:03:04.395Z,0
2016-12-24T00:04:14.437Z,0
2016-12-24T00:05:24.764Z,0
2016-12-24T00:06:35.127Z,0
2016-12-24T00:07:45.458Z,0
2016-12-24T00:08:55.186Z,0
2016-12-24T00:10:05.515Z,0
2016-12-24T00:11:15.900Z,0
2016-12-24T00:12:25.903Z,0
2016-12-24T00:13:35.921Z,0
2016-12-24T00:14:45.650Z,0
2016-12-24T00:15:55.989Z,0
2016-12-24T00:17:06.310Z,0
2016-12-24T00:18:16.318Z,0
2016-12-24T00:19:26.645Z,0
2016-12-24T00:20:36.346Z,0
2016-12-24T00:21:46.677Z,0
2016-12-24T00:22:57.058Z,0
2016-12-24T00:24:06.773Z,0
2016-12-24T00:25:17.088Z,0
2016-12-24T00:26:27.099Z,0
2016-12-24T00:27:37.421Z,0
2016-12-24T00:28:47.769Z,0
2016-12-24T00:29:57.472Z,0
2016-12-24T00:31:07.786Z,0
2016-12-24T00:32:17.793Z,0
2016-12-24T00:33:27.807Z,0
2016-12-24T00:34:37.827Z,0
2016-12-24T00:35:48.152Z,0
2016-12-24T00:36:58.189Z,0
2016-12-24T00:38:08.216Z,0
2016-12-24T00:39:18.248Z,0
2016-12-24T00:40:28.265Z,0
2016-12-24T00:41:38.608Z,0
2016-12-24T00:42:48.963Z,0
2016-12-24T00:43:58.351Z,0
2016-12-24T00:45:08.371Z,0
2016-12-24T00:46:18.375Z,0
2016-12-24T00:47:28.409Z,0
2016-12-24T00:48:38.422Z,0
2016-12-24T00:49:47.810Z,0
2016-12-24T00:50:58.141Z,0
2016-12-24T00:52:08.163Z,0
2016-12-24T00:53:17.868Z,0
2016-12-24T00:54:28.204Z,0
2016-12-24T00:55:37.899Z,0
2016-12-24T00:56:48.228Z,0
2016-12-24T00:57:58.550Z,0
2016-12-24T00:59:08.593Z,0
2016-12-24T01:00:18.846Z,0
2016-12-24T01:01:28.865Z,0
2016-12-24T01:02:38.581Z,0
2016-12-24T01:03:48.589Z,0
2016-12-24T01:04:58.281Z,0
2016-12-24T01:06:08.291Z,0
2016-12-24T01:07:18.608Z,0
2016-12-24T01:08:28.312Z,0
2016-12-24T01:09:38.321Z,0
2016-12-24T01:10:48.324Z,0
2016-12-24T01:11:57.717Z,0
2016-12-24T01:13:07.752Z,0
2016-12-24T01:14:18.074Z,0
2016-12-24T01:15:28.095Z,0
2016-12-24T01:16:38.412Z,0
2016-12-24T01:17:48.420Z,0
2016-12-24T01:18:58.431Z,0
2016-12-24T01:20:08.452Z,0
2016-12-24T01:21:18.770Z,0
2016-12-24T01:22:28.462Z,0
2016-12-24T01:23:38.812Z,0
2016-12-24T01:24:48.828Z,0
2016-12-24T01:25:58.526Z,0
2016-12-24T01:27:08.843Z,0
2016-12-24T01:28:19.164Z,0
2016-12-24T01:29:29.195Z,0
2016-12-24T01:30:39.531Z,0
2016-12-24T01:31:49.849Z,0
2016-12-24T01:33:00.207Z,0
2016-12-24T01:34:10.513Z,0
2016-12-24T01:35:20.835Z,0
2016-12-24T01:36:31.158Z,0
2016-12-24T01:37:41.489Z,0
2016-12-24T01:38:51.810Z,0
2016-12-24T01:40:01.817Z,0
2016-12-24T01:41:12.169Z,0
2016-12-24T01:42:22.178Z,0
2016-12-24T01:43:32.516Z,0
2016-12-24T01:44:42.529Z,0
2016-12-24T01:45:52.539Z,0
2016-12-24T01:47:02.550Z,0
2016-12-24T01:48:12.553Z,0
2016-12-24T01:49:22.904Z,0
2016-12-24T01:50:33.232Z,0
2016-12-24T01:51:43.245Z,0
2016-12-24T01:52:53.561Z,0
2016-12-24T01:54:03.882Z,0
2016-12-24T01:55:13.889Z,0
2016-12-24T01:56:23.594Z,0
2016-12-24T01:57:33.916Z,0
2016-12-24T01:58:44.248Z,0
2016-12-24T01:59:54.264Z,0
2016-12-24T02:01:04.282Z,0
2016-12-24T02:02:14.293Z,0
2016-12-24T02:03:24.314Z,0
2016-12-24T02:04:34.640Z,0
2016-12-24T02:05:44.688Z,0
2016-12-24T02:06:54.693Z,0
2016-12-24T02:08:05.013Z,0
2016-12-24T02:09:14.723Z,0
2016-12-24T02:10:24.419Z,0
2016-12-24T02:11:34.426Z,0
2016-12-24T02:12:44.744Z,0
2016-12-24T02:13:54.134Z,0
2016-12-24T02:15:03.840Z,0
2016-12-24T02:16:14.162Z,0
2016-12-24T02:17:24.483Z,0
2016-12-24T02:18:34.504Z,0
2016-12-24T02:19:44.518Z,0
2016-12-24T02:20:54.838Z,0
2016-12-24T02:22:05.211Z,0
2016-12-24T02:23:15.227Z,0
2016-12-24T02:24:25.548Z,0
2016-12-24T02:25:35.564Z,0
2016-12-24T02:26:45.885Z,0
2016-12-24T02:27:55.582Z,0
2016-12-24T02:29:05.274Z,0
2016-12-24T02:30:15.570Z,0
2016-12-24T02:31:25.610Z,0
2016-12-24T02:32:35.937Z,0
2016-12-24T02:33:45.942Z,0
2016-12-24T02:34:56.264Z,0
2016-12-24T02:36:05.675Z,0
2016-12-24T02:37:15.690Z,0
2016-12-24T02:38:26.014Z,0
2016-12-24T02:39:36.567Z,0
2016-12-24T02:40:46.881Z,0
2016-12-24T02:41:57.217Z,0
2016-12-24T02:43:06.921Z,0
2016-12-24T02:44:16.931Z,0
2016-12-24T02:45:27.252Z,0
2016-12-24T02:46:37.259Z,0
2016-12-24T02:47:47.576Z,0
2016-12-24T02:48:57.590Z,0
2016-12-24T02:50:07.316Z,0
2016-12-24T02:51:17.636Z,0
2016-12-24T02:52:27.642Z,0
2016-12-24T02:53:37.634Z,0
2016-12-24T02:54:47.950Z,0
2016-12-24T02:55:57.639Z,0
2016-12-24T02:57:07.659Z,0
2016-12-24T02:58:17.673Z,0
2016-12-24T02:59:27.699Z,0
2016-12-24T03:00:37.730Z,0
2016-12-24T03:01:48.043Z,0
2016-12-24T03:33:20.809Z,0
2016-12-24T03:34:30.494Z,0
2016-12-24T03:35:40.186Z,0
2016-12-24T03:36:49.879Z,0
2016-12-24T03:37:59.895Z,0
2016-12-24T03:39:09.587Z,0
2016-12-24T03:40:19.594Z,0
2016-12-24T03:41:29.615Z,0
2016-12-24T03:42:39.938Z,0
2016-12-24T03:43:50.262Z,0
2016-12-24T03:45:00.271Z,0
2016-12-24T03:46:10.581Z,0
2016-12-24T03:47:20.895Z,0
2016-12-24T03:48:31.214Z,0
2016-12-24T03:49:41.539Z,0
2016-12-24T03:50:51.854Z,0
2016-12-24T03:52:01.861Z,0
2016-12-24T03:53:11.857Z,0
2016-12-24T03:54:22.185Z,0
2016-12-24T03:55:31.883Z,0
2016-12-24T03:56:42.187Z,0
2016-12-24T03:57:52.194Z,0
2016-12-24T03:59:02.201Z,0
2016-12-24T04:00:11.915Z,0
2016-12-24T04:01:21.923Z,0
2016-12-24T04:02:31.933Z,0
2016-12-24T04:03:41.946Z,0
2016-12-24T04:04:52.259Z,0
2016-12-24T04:06:02.271Z,0
2016-12-24T04:07:12.272Z,0
2016-12-24T04:08:22.590Z,0
2016-12-24T04:09:32.910Z,0
2016-12-24T04:10:42.919Z,0
2016-12-24T04:11:53.249Z,0
2016-12-24T04:13:02.973Z,0
2016-12-24T04:14:13.347Z,0
2016-12-24T04:15:23.356Z,0
2016-12-24T04:16:33.666Z,0
2016-12-24T04:17:44.003Z,0
2016-12-24T04:18:54.009Z,0
2016-12-24T04:20:04.027Z,0
2016-12-24T04:21:14.024Z,0
2016-12-24T04:22:24.376Z,0
2016-12-24T04:23:34.707Z,0
2016-12-24T04:24:45.034Z,0
2016-12-24T04:25:55.581Z,0
2016-12-24T04:27:05.602Z,0
2016-12-24T04:28:15.600Z,0
2016-12-24T04:29:25.921Z,0
2016-12-24T04:30:35.943Z,0
2016-12-24T04:31:46.254Z,0
2016-12-24T04:32:56.262Z,0
2016-12-24T04:34:06.578Z,0
2016-12-24T04:35:16.906Z,0
2016-12-24T04:36:26.604Z,0
2016-12-24T04:37:36.922Z,0
2016-12-24T04:38:47.239Z,0
2016-12-24T04:39:57.235Z,0
2016-12-24T04:41:07.252Z,0
2016-12-24T04:42:17.254Z,0
2016-12-24T04:43:27.257Z,0
2016-12-24T04:44:36.657Z,0
2016-12-24T04:45:46.691Z,0
2016-12-24T04:46:57.028Z,0
2016-12-24T04:48:07.045Z,0
2016-12-24T04:49:16.419Z,0
2016-12-24T04:50:26.736Z,0
2016-12-24T04:51:37.053Z,0
2016-12-24T04:52:47.406Z,0
2016-12-24T04:53:57.103Z,0
2016-12-24T04:55:07.421Z,0
2016-12-24T04:56:17.761Z,0
2016-12-24T04:57:28.099Z,0
2016-12-24T04:58:37.518Z,0
2016-12-24T04:59:47.215Z,0
2016-12-24T05:00:57.252Z,0
2016-12-24T05:02:07.267Z,0
2016-12-24T05:03:16.957Z,0
2016-12-24T05:04:26.967Z,0
2016-12-24T05:05:37.288Z,0
2016-12-24T05:06:47.296Z,0
2016-12-24T05:07:57.605Z,0
2016-12-24T05:09:07.313Z,0
2016-12-24T05:10:17.634Z,0
2016-12-24T05:11:27.673Z,0
2016-12-24T05:12:37.370Z,0
2016-12-24T05:13:47.695Z,0
2016-12-24T05:14:58.015Z,0
2016-12-24T05:16:08.340Z,0
2016-12-24T05:17:18.671Z,0
2016-12-24T05:18:28.368Z,0
2016-12-24T05:19:38.680Z,0
2016-12-24T05:20:48.387Z,0
2016-12-24T05:21:58.689Z,0
2016-12-24T05:23:08.692Z,0
2016-12-24T05:24:18.407Z,0
2016-12-24T05:25:28.439Z,0
2016-12-24T05:26:38.760Z,0
2016-12-24T05:27:48.767Z,0
2016-12-24T05:28:59.123Z,0
2016-12-24T05:30:09.445Z,0
2016-12-24T05:31:19.768Z,0
2016-12-24T05:32:29.464Z,0
2016-12-24T05:33:39.782Z,0
2016-12-24T05:34:50.132Z,0
2016-12-24T05:36:00.454Z,0
2016-12-24T05:37:10.455Z,0
2016-12-24T05:38:19.843Z,0
2016-12-24T05:39:30.228Z,0
2016-12-24T05:40:40.221Z,0
2016-12-24T05:41:50.228Z,0
2016-12-24T05:43:00.545Z,0
2016-12-24T05:44:10.585Z,0
2016-12-24T05:45:20.589Z,0
2016-12-24T05:46:30.590Z,0
2016-12-24T05:47:40.610Z,0
2016-12-24T05:48:50.927Z,0
2016-12-24T05:50:00.934Z,0
2016-12-24T05:51:10.642Z,0
2016-12-24T05:52:20.644Z,0
2016-12-24T05:53:30.651Z,0
2016-12-24T05:54:40.354Z,0
2016-12-24T05:55:49.733Z,0
2016-12-24T05:57:00.056Z,0
2016-12-24T05:58:10.374Z,0
2016-12-24T05:59:20.385Z,0
2016-12-24T06:00:30.394Z,0
2016-12-24T06:01:40.708Z,0
2016-12-24T06:02:51.033Z,0
2016-12-24T06:04:01.356Z,0
2016-12-24T06:05:11.690Z,0
2016-12-24T06:06:21.691Z,0
2016-12-24T06:07:32.022Z,0
2016-12-24T06:08:42.034Z,0
2016-12-24T06:09:52.404Z,0
2016-12-24T06:11:02.726Z,0
2016-12-24T06:12:13.038Z,0
2016-12-24T06:13:23.084Z,0
2016-12-24T06:14:33.405Z,0
2016-12-24T06:15:43.731Z,0
2016-12-24T06:16:54.060Z,0
2016-12-24T06:18:04.071Z,0
2016-12-24T06:19:14.380Z,0
2016-12-24T06:20:24.391Z,0
2016-12-24T06:21:34.705Z,0
2016-12-24T06:22:45.041Z,0
2016-12-24T06:23:55.038Z,0
2016-12-24T06:25:05.368Z,0
2016-12-24T06:26:15.367Z,0
2016-12-24T06:27:24.765Z,0
2016-12-24T06:28:34.796Z,0
2016-12-24T06:29:45.113Z,0
2016-12-24T06:30:54.796Z,0
2016-12-24T06:32:04.507Z,0
2016-12-24T06:33:14.513Z,0
2016-12-24T06:34:24.520Z,0
2016-12-24T06:35:34.537Z,0
2016-12-24T06:36:44.238Z,0
2016-12-24T06:37:54.564Z,0
2016-12-24T06:39:04.576Z,0
2016-12-24T06:40:14.583Z,0
2016-12-24T06:41:24.582Z,0
2016-12-24T06:42:34.896Z,0
2016-12-24T06:43:45.213Z,0
2016-12-24T06:44:55.226Z,0
2016-12-24T06:46:05.234Z,0
2016-12-24T06:47:14.940Z,0
2016-12-24T06:48:25.271Z,0
2016-12-24T06:49:35.597Z,0
2016-12-24T06:50:45.919Z,0
2016-12-24T06:51:56.374Z,0
2016-12-24T06:53:06.718Z,5
2016-12-24T06:54:16.413Z,5
2016-12-24T06:55:26.731Z,5
2016-12-24T06:56:37.076Z,5
2016-12-24T06:57:46.809Z,5
2016-12-24T06:58:56.506Z,5
2016-12-24T07:00:06.821Z,5
2016-12-24T07:01:16.830Z,5
2016-12-24T07:02:26.516Z,5
2016-12-24T07:03:36.839Z,5
2016-12-24T07:04:46.231Z,5
2016-12-24T07:05:56.292Z,5
2016-12-24T07:07:06.608Z,5
2016-12-24T07:08:16.619Z,5
2016-12-24T07:09:26.633Z,5
2016-12-24T07:10:36.868Z,5
2016-12-24T07:11:46.564Z,5
2016-12-24T07:12:56.276Z,5
2016-12-24T07:14:06.283Z,5
2016-12-24T07:15:16.598Z,5
2016-12-24T07:16:26.626Z,5
2016-12-24T07:17:36.947Z,10
2016-12-24T07:18:46.989Z,10
2016-12-24T07:19:57.315Z,5
2016-12-24T07:21:07.323Z,10
2016-12-24T07:22:17.636Z,10
2016-12-24T07:23:27.963Z,10
2016-12-24T07:24:38.286Z,10
2016-12-24T07:25:47.987Z,10
2016-12-24T07:26:57.377Z,10
2016-12-24T07:28:07.389Z,10
2016-12-24T07:29:17.706Z,10
2016-12-24T07:30:27.746Z,10
2016-12-24T07:31:37.752Z,10
2016-12-24T07:32:48.073Z,15
2016-12-24T07:33:58.386Z,15
2016-12-24T07:35:08.090Z,15
2016-12-24T07:36:18.101Z,15
2016-12-24T07:37:28.411Z,15
2016-12-24T07:38:38.743Z,15
2016-12-24T07:39:48.436Z,20
2016-12-24T07:40:58.146Z,25
2016-12-24T07:42:07.858Z,25
2016-12-24T07:43:17.559Z,30
2016-12-24T07:44:27.267Z,30
2016-12-24T07:45:37.293Z,30
2016-12-24T07:46:47.625Z,25
2016-12-24T07:47:57.835Z,20
2016-12-24T07:49:08.158Z,25
2016-12-24T07:50:18.408Z,25
2016-12-24T07:51:28.428Z,30
2016-12-24T07:52:38.129Z,35
2016-12-24T07:53:48.140Z,35
2016-12-24T07:54:58.156Z,40
2016-12-24T07:56:07.859Z,40
2016-12-24T07:57:18.186Z,40
2016-12-24T07:58:28.513Z,40
2016-12-24T07:59:38.515Z,40
2016-12-24T08:00:48.209Z,40
2016-12-24T08:01:58.527Z,45
2016-12-24T08:03:08.838Z,45
2016-12-24T08:04:18.550Z,50
2016-12-24T08:05:28.596Z,55
2016-12-24T08:06:38.322Z,60
2016-12-24T08:07:48.893Z,55
2016-12-24T08:08:58.906Z,60
2016-12-24T08:10:09.225Z,60
2016-12-24T08:11:19.549Z,70
2016-12-24T08:12:29.557Z,65
2016-12-24T08:13:39.881Z,65
2016-12-24T08:14:49.920Z,70
2016-12-24T08:15:59.931Z,70
2016-12-24T08:17:09.950Z,60
2016-12-24T08:18:19.962Z,50
2016-12-24T08:19:29.377Z,55
2016-12-24T08:20:39.095Z,50
2016-12-24T08:21:49.115Z,60
2016-12-24T08:22:59.141Z,65
2016-12-24T08:24:08.519Z,65
2016-12-24T08:25:18.521Z,65
2016-12-24T08:26:28.868Z,55
2016-12-24T08:27:39.189Z,50
2016-12-24T08:28:48.576Z,45
2016-12-24T08:29:58.892Z,40
2016-12-24T08:31:08.594Z,35
2016-12-24T08:32:18.605Z,40
2016-12-24T08:33:28.614Z,35
2016-12-24T08:34:38.935Z,35
2016-12-24T08:35:48.937Z,30
2016-12-24T08:36:59.266Z,25
2016-12-24T08:38:09.280Z,30
2016-12-24T08:39:19.300Z,35
2016-12-24T08:40:29.616Z,35
2016-12-24T08:41:39.949Z,35
2016-12-24T08:42:50.275Z,35
2016-12-24T08:44:00.327Z,40
2016-12-24T08:45:10.344Z,40
2016-12-24T08:46:20.668Z,40
2016-12-24T08:47:30.982Z,35
2016-12-24T08:48:40.997Z,30
2016-12-24T08:49:51.310Z,30
2016-12-24T08:51:01.011Z,30
2016-12-24T08:52:11.029Z,35
2016-12-24T08:53:21.051Z,35
2016-12-24T08:54:31.369Z,40
2016-12-24T08:55:41.389Z,40
2016-12-24T08:56:51.702Z,40
2016-12-24T08:58:01.718Z,40
2016-12-24T08:59:12.044Z,40
2016-12-24T09:00:21.755Z,40
2016-12-24T09:01:31.770Z,40
2016-12-24T09:02:42.085Z,40
2016-12-24T09:03:52.092Z,45
2016-12-24T09:05:02.107Z,50
2016-12-24T09:06:12.443Z,45
2016-12-24T09:07:22.466Z,55
2016-12-24T09:08:32.798Z,55
2016-12-24T09:09:42.836Z,50
2016-12-24T09:10:52.876Z,45
2016-12-24T09:12:02.592Z,50
2016-12-24T09:13:12.914Z,45
2016-12-24T09:14:23.236Z,50
2016-12-24T09:15:33.563Z,45
2016-12-24T09:16:43.946Z,50
2016-12-24T09:17:55.468Z,60
2016-12-24T09:19:05.787Z,65
2016-12-24T09:20:16.134Z,65
2016-12-24T09:21:26.459Z,65
2016-12-24T09:22:36.153Z,80
2016-12-24T09:23:46.475Z,80
2016-12-24T09:24:56.496Z,85
2016-12-24T09:26:06.833Z,85
2016-12-24T09:27:16.861Z,85
2016-12-24T09:28:26.586Z,80
2016-12-24T09:29:36.926Z,80
2016-12-24T09:30:46.949Z,85
2016-12-24T09:31:56.650Z,80
2016-12-24T09:33:06.340Z,75
2016-12-24T09:34:16.355Z,65
2016-12-24T09:35:26.704Z,60
2016-12-24T09:36:36.724Z,55
2016-12-24T09:37:47.060Z,55
2016-12-24T09:38:57.097Z,60
2016-12-24T09:40:07.411Z,55
2016-12-24T09:41:17.774Z,50
2016-12-24T09:42:27.473Z,50
2016-12-24T09:43:37.791Z,50
2016-12-24T09:44:47.840Z,55
2016-12-24T09:45:58.164Z,60
2016-12-24T09:47:08.193Z,65
2016-12-24T09:48:18.196Z,75
2016-12-24T09:49:28.226Z,80
2016-12-24T09:50:38.241Z,85
2016-12-24T09:51:48.265Z,85
2016-12-24T09:52:58.577Z,85
2016-12-24T09:54:08.903Z,85
2016-12-24T09:55:18.937Z,85
2016-12-24T09:56:28.955Z,90
2016-12-24T09:57:39.280Z,100
2016-12-24T09:58:49.296Z,115
2016-12-24T09:59:59.360Z,120
2016-12-24T10:01:09.403Z,135
2016-12-24T10:02:19.725Z,140
2016-12-24T10:03:29.742Z,150
2016-12-24T10:04:40.066Z,155
2016-12-24T10:05:50.402Z,170
2016-12-24T10:07:00.714Z,155
2016-12-24T10:08:10.749Z,145
2016-12-24T10:09:20.466Z,140
2016-12-24T10:10:30.798Z,135
2016-12-24T10:11:41.137Z,140
2016-12-24T10:12:51.158Z,140
2016-12-24T10:14:01.503Z,145
2016-12-24T10:15:11.198Z,160
2016-12-24T10:16:21.531Z,175
2016-12-24T10:17:31.548Z,175
2016-12-24T10:18:41.559Z,190
2016-12-24T10:19:50.952Z,195
2016-12-24T10:21:01.280Z,200
2016-12-24T10:22:11.289Z,205
2016-12-24T10:23:21.307Z,200
2016-12-24T10:24:31.694Z,195
2016-12-24T10:25:41.727Z,190
2016-12-24T10:26:51.752Z,180
2016-12-24T10:28:01.773Z,170
2016-12-24T10:29:12.421Z,170
2016-12-24T10:30:22.566Z,170
2016-12-24T10:31:32.934Z,175
2016-12-24T10:32:42.969Z,170
2016-12-24T10:33:53.030Z,160
2016-12-24T10:35:03.362Z,160
2016-12-24T10:36:13.695Z,165
2016-12-24T10:37:24.033Z,175
2016-12-24T10:38:34.368Z,175
2016-12-24T10:39:44.704Z,155
2016-12-24T10:40:54.718Z,150
2016-12-24T10:42:04.756Z,145
2016-12-24T10:43:16.532Z,145
2016-12-24T10:44:26.930Z,140
2016-12-24T10:45:37.284Z,135
2016-12-24T10:46:47.664Z,135
2016-12-24T10:47:57.998Z,140
2016-12-24T10:49:08.424Z,145
2016-12-24T10:50:18.466Z,150
2016-12-24T10:51:28.477Z,145
2016-12-24T10:52:38.872Z,135
2016-12-24T10:53:48.956Z,130
2016-12-24T10:54:59.323Z,120
2016-12-24T10:56:09.685Z,115
2016-12-24T10:57:19.695Z,100
2016-12-24T10:58:30.723Z,100
2016-12-24T10:59:43.714Z,115
2016-12-24T11:00:56.225Z,125
2016-12-24T11:02:09.786Z,125
2016-12-24T11:03:22.699Z,130
2016-12-24T11:04:35.383Z,125
2016-12-24T11:05:48.597Z,130
2016-12-24T11:07:00.969Z,140
2016-12-24T11:08:13.660Z,140
2016-12-24T11:09:25.888Z,135
2016-12-24T11:10:39.071Z,135
2016-12-24T11:11:50.989Z,135
2016-12-24T11:13:04.256Z,125
2016-12-24T11:14:16.862Z,125
2016-12-24T11:15:29.823Z,125
2016-12-24T11:16:42.698Z,125
2016-12-24T11:17:55.413Z,130
2016-12-24T11:19:10.211Z,130
2016-12-24T11:20:22.296Z,135
2016-12-24T11:21:34.635Z,130
2016-12-24T11:22:46.637Z,120
2016-12-24T11:23:57.981Z,130
2016-12-24T11:25:10.488Z,125
2016-12-24T11:26:21.211Z,135
2016-12-24T11:27:45.815Z,135
2016-12-24T11:28:56.164Z,140
2016-12-24T11:30:05.883Z,165
2016-12-24T11:31:15.921Z,145
2016-12-24T11:32:26.261Z,165
2016-12-24T11:33:36.610Z,155
2016-12-24T11:34:46.626Z,140
2016-12-24T11:35:56.955Z,135
2016-12-24T11:37:06.977Z,130
2016-12-24T11:38:16.729Z,130
2016-12-24T11:39:27.103Z,120
2016-12-24T11:40:36.854Z,110
2016-12-24T11:41:47.228Z,105
2016-12-24T11:42:57.287Z,105
2016-12-24T11:44:07.691Z,100
2016-12-24T11:45:17.439Z,95
2016-12-24T11:46:27.861Z,100
2016-12-24T11:47:38.231Z,100
2016-12-24T11:48:48.628Z,95
2016-12-24T11:49:58.901Z,95
2016-12-24T11:51:09.274Z,95
2016-12-24T11:52:19.319Z,90
2016-12-24T11:53:29.710Z,90
2016-12-24T11:54:40.041Z,90
2016-12-24T11:55:50.362Z,90
2016-12-24T11:57:00.875Z,85
2016-12-24T11:58:11.212Z,80
2016-12-24T11:59:21.236Z,75
2016-12-24T12:00:31.579Z,70
2016-12-24T12:01:41.629Z,70
2016-12-24T12:02:51.686Z,70
2016-12-24T12:04:02.059Z,65
2016-12-24T12:05:12.406Z,60
2016-12-24T12:06:22.764Z,60
2016-12-24T12:07:32.519Z,55
2016-12-24T12:08:42.907Z,50
2016-12-24T12:09:53.247Z,45
2016-12-24T12:11:03.593Z,45
2016-12-24T12:12:13.631Z,45
2016-12-24T12:13:23.664Z,50
2016-12-24T12:14:33.715Z,50
2016-12-24T12:15:43.129Z,55
2016-12-24T12:16:53.149Z,60
2016-12-24T12:18:03.475Z,55
2016-12-24T12:19:13.839Z,55
2016-12-24T12:20:23.867Z,55
2016-12-24T12:21:34.254Z,55
2016-12-24T12:22:44.610Z,60
2016-12-24T12:23:54.337Z,55
2016-12-24T12:25:04.059Z,60
2016-12-24T12:26:14.080Z,65
2016-12-24T12:27:24.112Z,70
2016-12-24T12:28:34.454Z,75
2016-12-24T12:29:44.471Z,80
2016-12-24T12:30:54.494Z,90
2016-12-24T12:32:04.848Z,95
2016-12-24T12:33:14.878Z,105
2016-12-24T12:34:25.251Z,100
2016-12-24T12:35:34.961Z,110
2016-12-24T12:36:44.987Z,110
2016-12-24T12:37:55.342Z,115
2016-12-24T12:39:05.680Z,120
2016-12-24T12:40:15.712Z,100
2016-12-24T12:41:25.419Z,90
2016-12-24T12:42:34.839Z,90
2016-12-24T12:43:45.193Z,90
2016-12-24T12:44:55.214Z,95
2016-12-24T12:46:04.936Z,95
2016-12-24T12:47:15.000Z,90
2016-12-24T12:48:25.372Z,95
2016-12-24T12:49:35.405Z,95
2016-12-24T12:50:45.122Z,100
2016-12-24T12:51:55.159Z,100
2016-12-24T12:53:05.513Z,95
2016-12-24T12:54:15.880Z,90
2016-12-24T12:55:26.227Z,85
2016-12-24T12:56:36.570Z,80
2016-12-24T12:57:46.642Z,70
2016-12-24T12:58:56.689Z,70
2016-12-24T13:00:07.061Z,65
2016-12-24T13:01:17.108Z,60
2016-12-24T13:02:27.466Z,60
2016-12-24T13:03:37.838Z,55
2016-12-24T13:04:47.880Z,55
2016-12-24T13:05:57.920Z,55
2016-12-24T13:07:08.262Z,55
2016-12-24T13:08:18.640Z,55
2016-12-24T13:09:28.984Z,55
2016-12-24T13:10:39.028Z,50
2016-12-24T13:11:48.763Z,50
2016-12-24T13:12:58.810Z,50
2016-12-24T13:14:09.413Z,50
2016-12-24T13:15:19.798Z,50
2016-12-24T13:16:29.529Z,55
2016-12-24T13:17:39.905Z,55
2016-12-24T13:18:50.310Z,50
2016-12-24T13:20:00.356Z,50
2016-12-24T13:21:10.427Z,50
2016-12-24T13:22:20.509Z,45
2016-12-24T13:23:30.558Z,45
2016-12-24T13:24:40.616Z,45
2016-12-24T13:25:50.945Z,45
2016-12-24T13:27:01.031Z,45
2016-12-24T13:28:11.057Z,45
2016-12-24T13:29:21.160Z,45
2016-12-24T13:30:31.514Z,45
2016-12-24T13:31:41.542Z,40
2016-12-24T13:32:51.902Z,40
2016-12-24T13:34:02.247Z,40
2016-12-24T13:35:12.299Z,40
2016-12-24T13:36:21.722Z,40
2016-12-24T13:37:31.445Z,40
2016-12-24T13:38:41.808Z,40
2016-12-24T13:39:51.851Z,40
2016-12-24T13:41:02.217Z,35
2016-12-24T13:42:12.274Z,35
2016-12-24T13:43:22.341Z,35
2016-12-24T13:44:32.694Z,35
2016-12-24T13:45:42.098Z,40
2016-12-24T13:46:52.437Z,40
2016-12-24T13:48:02.853Z,40
2016-12-24T13:49:13.192Z,35
2016-12-24T13:50:23.566Z,35
2016-12-24T13:51:33.594Z,30
2016-12-24T13:52:43.621Z,30
2016-12-24T13:53:53.356Z,25
2016-12-24T13:55:03.710Z,25
2016-12-24T13:56:13.771Z,25
2016-12-24T13:57:24.127Z,20
2016-12-24T13:58:33.844Z,20
2016-12-24T13:59:43.893Z,15
2016-12-24T14:00:53.971Z,15
2016-12-24T14:02:04.009Z,15
2016-12-24T14:03:14.352Z,15
2016-12-24T14:04:24.684Z,15
2016-12-24T14:05:34.716Z,15
2016-12-24T14:06:44.771Z,15
2016-12-24T14:07:55.098Z,15
2016-12-24T14:09:05.134Z,15
2016-12-24T14:10:14.870Z,15
2016-12-24T14:11:24.284Z,15
2016-12-24T14:12:34.646Z,15
2016-12-24T14:13:44.987Z,15
2016-12-24T14:14:55.342Z,15
2016-12-24T14:16:05.689Z,20
2016-12-24T14:17:15.723Z,20
2016-12-24T14:18:25.774Z,20
2016-12-24T14:19:35.504Z,15
2016-12-24T14:20:45.872Z,15
2016-12-24T14:21:56.276Z,15
2016-12-24T14:23:06.346Z,15
2016-12-24T14:24:16.702Z,15
2016-12-24T14:25:26.436Z,15
2016-12-24T14:26:36.782Z,15
2016-12-24T14:27:47.126Z,15
2016-12-24T14:28:57.156Z,15
2016-12-24T14:30:07.203Z,15
2016-12-24T14:31:17.230Z,10
2016-12-24T14:32:27.572Z,10
2016-12-24T14:33:37.610Z,10
2016-12-24T14:34:48.016Z,10
2016-12-24T14:35:57.456Z,10
2016-12-24T14:37:07.186Z,10
2016-12-24T14:38:16.928Z,10
2016-12-24T14:39:27.267Z,10
2016-12-24T14:40:37.635Z,10
2016-12-24T14:41:47.969Z,5
2016-12-24T14:42:58.299Z,5
2016-12-24T14:44:08.356Z,5
2016-12-24T14:45:18.413Z,5
2016-12-24T14:46:28.445Z,5
2016-12-24T14:47:38.820Z,0
2016-12-24T14:48:48.853Z,0
2016-12-24T14:49:59.226Z,0
2016-12-24T14:51:09.622Z,0
2016-12-24T14:52:19.345Z,0
2016-12-24T14:53:29.074Z,0
2016-12-24T14:54:39.115Z,0
2016-12-24T14:55:48.838Z,0
2016-12-24T14:56:58.878Z,0
2016-12-24T14:58:09.218Z,0
2016-12-24T14:59:19.581Z,0
2016-12-24T15:00:29.923Z,0
2016-12-24T15:01:39.989Z,0
2016-12-24T15:02:50.340Z,0
2016-12-24T15:04:00.706Z,0
2016-12-24T15:05:10.744Z,0
2016-12-24T15:06:20.781Z,0
2016-12-24T15:07:31.158Z,0
2016-12-24T15:08:40.299Z,0
2016-12-24T15:09:50.667Z,0
2016-12-24T15:11:00.703Z,0
2016-12-24T15:12:11.065Z,0
2016-12-24T15:13:21.096Z,0
2016-12-24T15:14:30.835Z,0
2016-12-24T15:15:40.567Z,0
2016-12-24T15:16:50.917Z,0
2016-12-24T15:18:00.950Z,0
2016-12-24T15:19:10.975Z,0
2016-12-24T15:20:21.350Z,0
2016-12-24T15:21:31.704Z,0
2016-12-24T15:22:42.060Z,0
2016-12-24T15:23:52.423Z,0
2016-12-24T15:25:02.162Z,0
2016-12-24T15:26:11.566Z,0
2016-12-24T15:27:21.649Z,0
2016-12-24T15:28:31.663Z,0
2016-12-24T15:29:41.388Z,0
2016-12-24T15:30:51.451Z,0
2016-12-24T15:32:01.796Z,0
2016-12-24T15:33:11.842Z,0
2016-12-24T15:34:22.232Z,0
2016-12-24T15:35:32.594Z,0
2016-12-24T15:36:42.641Z,0
2016-12-24T15:37:52.658Z,0
2016-12-24T15:39:02.690Z,0
2016-12-24T15:40:12.418Z,0
2016-12-24T15:41:22.757Z,0
2016-12-24T15:42:33.120Z,0
2016-12-24T15:43:43.154Z,0
2016-12-24T15:44:53.192Z,0
2016-12-24T15:46:03.553Z,0
2016-12-24T15:47:13.898Z,0
2016-12-24T15:48:23.945Z,0
2016-12-24T15:49:33.967Z,0
2016-12-24T15:50:43.693Z,0
2016-12-24T15:51:53.733Z,0
2016-12-24T15:53:03.782Z,0
2016-12-24T15:54:13.179Z,0
2016-12-24T15:55:23.522Z,0
2016-12-24T15:56:33.867Z,0
2016-12-24T15:57:44.231Z,0
2016-12-24T15:58:54.272Z,0
2016-12-24T16:00:04.603Z,0
2016-12-24T16:01:14.998Z,0
2016-12-24T16:02:25.058Z,0
2016-12-24T16:03:35.108Z,0
2016-12-24T16:04:45.450Z,0
2016-12-24T16:05:55.202Z,0
2016-12-24T16:07:04.933Z,0
2016-12-24T16:08:15.311Z,0
2016-12-24T16:09:25.342Z,0
2016-12-24T16:10:35.761Z,0
2016-12-24T16:11:45.803Z,0
2016-12-24T16:12:56.206Z,0
2016-12-24T16:14:06.233Z,0
2016-12-24T16:15:16.588Z,0
2016-12-24T16:16:26.972Z,0
2016-12-24T16:17:37.301Z,0
2016-12-24T16:18:47.635Z,0
2016-12-24T16:19:57.344Z,0
2016-12-24T16:21:07.353Z,0
2016-12-24T16:22:17.402Z,0
2016-12-24T16:23:27.733Z,0
2016-12-24T16:24:37.748Z,0
2016-12-24T16:25:47.777Z,0
2016-12-24T16:26:57.781Z,0
2016-12-24T16:28:07.493Z,0
2016-12-24T16:29:17.509Z,0
2016-12-24T16:30:27.513Z,0
2016-12-24T16:31:37.529Z,0
2016-12-24T16:32:47.865Z,0
2016-12-24T16:33:58.171Z,0
2016-12-24T16:35:08.175Z,0
2016-12-24T16:36:18.177Z,0
2016-12-24T16:37:28.496Z,0
2016-12-24T16:38:38.817Z,0
2016-12-24T16:39:48.826Z,0
2016-12-24T16:40:59.148Z,0
2016-12-24T16:42:09.459Z,0
2016-12-24T16:43:19.785Z,0
2016-12-24T16:44:30.118Z,0
2016-12-24T16:45:40.445Z,0
2016-12-24T16:46:50.782Z,0
2016-12-24T16:48:00.793Z,0
2016-12-24T16:49:10.490Z,0
2016-12-24T16:50:19.891Z,0
2016-12-24T16:51:29.897Z,0
2016-12-24T16:52:40.251Z,0
2016-12-24T16:53:50.260Z,0
2016-12-24T16:55:00.583Z,0
2016-12-24T16:56:10.911Z,0
2016-12-24T16:57:20.917Z,0
2016-12-24T16:58:30.936Z,0
2016-12-24T16:59:41.257Z,0
2016-12-24T17:00:51.296Z,0
2016-12-24T17:02:01.317Z,0
2016-12-24T17:03:11.315Z,0
2016-12-24T17:04:21.334Z,0
2016-12-24T17:05:31.662Z,0
2016-12-24T17:06:41.995Z,0
2016-12-24T17:07:51.756Z,0
2016-12-24T17:09:02.092Z,0
2016-12-24T17:10:12.415Z,0
2016-12-24T17:11:22.132Z,0
2016-12-24T17:12:32.477Z,0
2016-12-24T17:13:42.186Z,0
2016-12-24T17:14:52.195Z,0
2016-12-24T17:16:02.542Z,0
2016-12-24T17:17:12.863Z,0
2016-12-24T17:18:23.192Z,0
2016-12-24T17:19:33.509Z,0
2016-12-24T17:20:43.523Z,0
2016-12-24T17:21:53.865Z,0
2016-12-24T17:23:03.892Z,0
2016-12-24T17:24:14.232Z,0
2016-12-24T17:25:24.237Z,0
2016-12-24T17:26:34.565Z,0
2016-12-24T17:27:44.584Z,0